CET,Max TemperatureF,Mean TemperatureF,Min TemperatureF,Max Dew PointF,MeanDew PointF,Min DewpointF,Max Humidity, Mean Humidity, Min Humidity, Max Sea Level PressureIn, Mean Sea Level PressureIn, Min Sea Level PressureIn, Max VisibilityMiles, Mean VisibilityMiles, Min VisibilityMiles, Max Wind SpeedMPH, Mean Wind SpeedMPH, Max Gust SpeedMPH,PrecipitationIn, CloudCover, Events, WindDirDegrees
2012-10-1,60,49,38,48,42,36,98,76,47,30.18,30.07,30.01,19,8,4,9,3,,0.00,5,Rain,225
2012-10-2,60,51,42,48,44,41,93,73,44,30.09,30.06,30.04,19,7,2,13,6,,0.00,5,,214
2012-10-3,62,52,43,47,43,37,93,73,41,30.08,30.01,29.94,16,7,4,20,7,,0.00,3,,197
2012-10-4,58,50,41,53,45,39,94,78,65,30.05,29.88,29.73,12,6,2,30,13,37,0.24,6,Rain,214
2012-10-5,60,50,40,51,45,36,98,79,57,30.11,29.98,29.86,19,6,3,24,10,37,0.00,6,Rain,203
2012-10-6,66,56,46,52,49,45,95,74,43,29.98,29.92,29.80,19,7,1,21,13,37,0.00,5,Rain,223
2012-10-7,50,44,39,46,40,34,100,81,58,30.21,30.02,29.89,19,5,1,13,6,,0.04,6,Rain,339
2012-10-8,52,42,33,38,34,28,98,71,36,30.25,30.12,29.92,19,9,1,9,6,,0.00,4,,220
2012-10-9,52,44,37,43,37,32,91,73,46,30.02,29.88,29.80,16,7,3,13,6,23,0.01,4,Rain,284
2012-10-10,48,39,30,37,33,30,100,76,45,30.05,29.97,29.92,19,7,3,9,4,,0.00,4,Fog,296
2012-10-11,51,39,27,36,32,27,100,76,40,30.08,29.95,29.86,19,6,0,9,3,,0.00,1,Fog,130
2012-10-12,50,43,36,49,39,30,100,84,68,29.92,29.83,29.77,12,5,1,18,5,,0.04,7,Rain,174
2012-10-13,52,45,38,42,38,36,98,77,48,30.03,29.91,29.74,19,7,3,15,9,,0.00,2,,195
2012-10-14,51,46,40,43,38,34,87,73,55,29.77,29.65,29.50,19,7,6,17,8,,0.00,5,Rain,189
2012-10-15,47,44,41,44,39,36,90,83,76,29.92,29.68,29.50,19,7,5,17,9,,0.00,7,Rain,208
2012-10-16,50,44,38,39,37,34,93,74,49,29.94,29.88,29.83,17,7,3,15,6,,0.00,7,,206
2012-10-17,58,48,37,46,40,34,98,71,48,30.02,29.96,29.92,19,7,4,13,7,,0.00,6,,183
2012-10-18,55,49,43,47,43,37,95,80,60,30.06,30.01,29.97,19,7,2,12,6,,0.00,6,,149
2012-10-19,63,54,42,51,45,41,100,83,50,30.09,30.05,29.97,16,4,0,11,7,,0.00,3,Fog,141
2012-10-20,71,55,39,54,46,36,100,79,38,30.16,30.10,30.05,19,4,0,9,4,,0.00,6,Fog,105
2012-10-21,69,54,39,50,45,39,100,75,32,30.15,30.10,30.02,19,5,0,8,3,,0.00,,Fog,129
2012-10-22,50,44,39,48,42,37,100,93,82,30.28,30.20,30.15,4,1,0,7,4,,0.00,8,Fog-Rain,71
2012-10-23,55,50,44,47,44,41,100,85,62,30.31,30.25,30.21,6,2,0,8,5,,0.00,8,Fog-Rain,54
2012-10-24,45,44,42,45,42,41,100,93,87,30.25,30.14,30.06,2,1,0,6,3,,0.00,8,Fog,340
2012-10-25,45,43,41,44,41,39,100,93,87,30.10,29.96,29.86,6,2,0,9,5,,0.00,8,Fog-Rain,234
2012-10-26,36,34,32,41,33,28,100,86,70,29.95,29.80,29.50,16,5,1,15,7,,0.08,7,Rain-Snow,31
2012-10-27,29,28,28,33,28,25,100,93,85,29.77,29.51,29.36,11,2,0,28,12,39,0.16,7,Rain-Snow,17
2012-10-28,30,26,23,30,26,21,100,89,77,30.10,29.89,29.71,16,6,0,12,7,,0.00,8,Snow,10
2012-10-29,33,24,15,28,21,12,100,86,65,30.15,29.96,29.77,19,4,0,14,4,,0.00,5,Fog-Snow,207
2012-10-30,35,31,27,35,31,25,100,92,86,29.88,29.70,29.62,7,3,0,16,10,,0.03,8,Fog-Rain-Snow,207
2012-10-31,46,40,33,38,35,32,100,85,66,29.74,29.62,29.42,12,4,0,13,6,,0.00,6,Fog-Rain,152